sensor_id;sensor_type;location;lat;lon;timestamp;temperature;humidity
7194;DHT22;3638;48.820;9.244;2022-12-07T00:01:30;5.20;99.90
7194;DHT22;3638;48.820;9.244;2022-12-07T00:04:02;5.10;99.90
7194;DHT22;3638;48.820;9.244;2022-12-07T00:06:30;5.00;99.90
7194;DHT22;3638;48.820;9.244;2022-12-07T00:08:58;5.10;99.90
7194;DHT22;3638;48.820;9.244;2022-12-07T00:11:25;5.00;99.90
7194;DHT22;3638;48.820;9.244;2022-12-07T00:13:54;5.10;99.90
7194;DHT22;3638;48.820;9.244;2022-12-07T00:16:24;5.10;99.90
7194;DHT22;3638;48.820;9.244;2022-12-07T00:18:56;5.10;99.90
7194;DHT22;3638;48.820;9.244;2022-12-07T00:21:25;5.00;99.90
7194;DHT22;3638;48.820;9.244;2022-12-07T00:23:53;4.90;99.90
7194;DHT22;3638;48.820;9.244;2022-12-07T00:26:22;4.90;99.90
7194;DHT22;3638;48.820;9.244;2022-12-07T00:28:51;5.00;99.90
7194;DHT22;3638;48.820;9.244;2022-12-07T00:31:21;5.10;99.90
7194;DHT22;3638;48.820;9.244;2022-12-07T00:33:50;5.00;99.90
7194;DHT22;3638;48.820;9.244;2022-12-07T00:36:20;5.00;99.90
7194;DHT22;3638;48.820;9.244;2022-12-07T00:38:48;5.00;99.90
7194;DHT22;3638;48.820;9.244;2022-12-07T00:41:17;5.00;99.90
7194;DHT22;3638;48.820;9.244;2022-12-07T00:43:46;5.00;99.90
7194;DHT22;3638;48.820;9.244;2022-12-07T00:46:15;5.00;99.90
7194;DHT22;3638;48.820;9.244;2022-12-07T00:48:42;5.00;99.90
7194;DHT22;3638;48.820;9.244;2022-12-07T00:51:11;4.90;99.90
7194;DHT22;3638;48.820;9.244;2022-12-07T00:53:40;5.00;99.90
7194;DHT22;3638;48.820;9.244;2022-12-07T00:56:09;5.00;99.90
7194;DHT22;3638;48.820;9.244;2022-12-07T00:58:38;5.00;99.90
7194;DHT22;3638;48.820;9.244;2022-12-07T01:01:06;4.90;99.90
7194;DHT22;3638;48.820;9.244;2022-12-07T01:03:35;4.90;99.90
7194;DHT22;3638;48.820;9.244;2022-12-07T01:06:02;4.80;99.90
7194;DHT22;3638;48.820;9.244;2022-12-07T01:08:30;4.80;99.90
7194;DHT22;3638;48.820;9.244;2022-12-07T01:10:59;4.90;99.90
7194;DHT22;3638;48.820;9.244;2022-12-07T01:13:28;4.80;99.90
7194;DHT22;3638;48.820;9.244;2022-12-07T01:15:57;4.80;99.90
7194;DHT22;3638;48.820;9.244;2022-12-07T01:18:26;4.80;99.90
7194;DHT22;3638;48.820;9.244;2022-12-07T01:20:58;4.80;99.90
7194;DHT22;3638;48.820;9.244;2022-12-07T01:23:26;4.80;99.90
7194;DHT22;3638;48.820;9.244;2022-12-07T01:25:55;4.70;99.90
7194;DHT22;3638;48.820;9.244;2022-12-07T01:28:23;4.70;99.90
7194;DHT22;3638;48.820;9.244;2022-12-07T01:30:58;4.60;99.90
7194;DHT22;3638;48.820;9.244;2022-12-07T01:33:26;4.60;99.90
7194;DHT22;3638;48.820;9.244;2022-12-07T01:35:54;4.00;99.90
7194;DHT22;3638;48.820;9.244;2022-12-07T01:38:23;4.60;99.90
7194;DHT22;3638;48.820;9.244;2022-12-07T01:40:54;4.70;99.90
7194;DHT22;3638;48.820;9.244;2022-12-07T01:43:24;4.60;99.90
7194;DHT22;3638;48.820;9.244;2022-12-07T01:45:53;4.50;99.90
7194;DHT22;3638;48.820;9.244;2022-12-07T01:48:24;4.50;99.90
7194;DHT22;3638;48.820;9.244;2022-12-07T01:50:55;4.50;99.90
7194;DHT22;3638;48.820;9.244;2022-12-07T01:53:25;4.50;99.90
7194;DHT22;3638;48.820;9.244;2022-12-07T01:55:56;4.50;99.90
7194;DHT22;3638;48.820;9.244;2022-12-07T01:58:25;4.50;99.90
7194;DHT22;3638;48.820;9.244;2022-12-07T02:00:52;4.60;99.90
7194;DHT22;3638;48.820;9.244;2022-12-07T02:03:22;4.60;99.90
7194;DHT22;3638;48.820;9.244;2022-12-07T02:05:53;4.60;99.90
7194;DHT22;3638;48.820;9.244;2022-12-07T02:08:21;4.70;99.90
7194;DHT22;3638;48.820;9.244;2022-12-07T02:10:48;4.70;99.90
7194;DHT22;3638;48.820;9.244;2022-12-07T02:13:17;4.70;99.90
7194;DHT22;3638;48.820;9.244;2022-12-07T02:15:57;4.80;99.90
7194;DHT22;3638;48.820;9.244;2022-12-07T02:18:38;4.70;99.90
7194;DHT22;3638;48.820;9.244;2022-12-07T02:21:14;4.70;99.90
7194;DHT22;3638;48.820;9.244;2022-12-07T02:24:19;4.80;99.90
7194;DHT22;3638;48.820;9.244;2022-12-07T02:27:13;4.70;99.90
7194;DHT22;3638;48.820;9.244;2022-12-07T02:29:53;4.60;99.90
7194;DHT22;3638;48.820;9.244;2022-12-07T02:32:27;4.60;99.90
7194;DHT22;3638;48.820;9.244;2022-12-07T02:35:06;4.60;99.90
7194;DHT22;3638;48.820;9.244;2022-12-07T02:37:37;4.70;99.90
7194;DHT22;3638;48.820;9.244;2022-12-07T02:40:10;4.70;99.90
7194;DHT22;3638;48.820;9.244;2022-12-07T02:42:45;4.60;99.90
7194;DHT22;3638;48.820;9.244;2022-12-07T02:45:17;4.40;99.90
7194;DHT22;3638;48.820;9.244;2022-12-07T02:47:51;4.40;99.90
7194;DHT22;3638;48.820;9.244;2022-12-07T02:50:20;4.40;99.90
7194;DHT22;3638;48.820;9.244;2022-12-07T02:52:48;4.50;99.90
7194;DHT22;3638;48.820;9.244;2022-12-07T02:55:18;4.50;99.90
7194;DHT22;3638;48.820;9.244;2022-12-07T02:57:58;4.40;99.90
7194;DHT22;3638;48.820;9.244;2022-12-07T03:00:39;4.40;99.90
7194;DHT22;3638;48.820;9.244;2022-12-07T03:03:14;4.40;99.90
7194;DHT22;3638;48.820;9.244;2022-12-07T03:05:58;4.40;99.90
7194;DHT22;3638;48.820;9.244;2022-12-07T03:08:36;4.40;99.90
7194;DHT22;3638;48.820;9.244;2022-12-07T03:11:08;4.50;99.90
7194;DHT22;3638;48.820;9.244;2022-12-07T03:13:41;4.40;99.90
7194;DHT22;3638;48.820;9.244;2022-12-07T03:16:15;4.50;99.90
7194;DHT22;3638;48.820;9.244;2022-12-07T03:18:47;4.40;99.90
7194;DHT22;3638;48.820;9.244;2022-12-07T03:21:18;4.40;99.90
7194;DHT22;3638;48.820;9.244;2022-12-07T03:23:51;4.50;99.90
7194;DHT22;3638;48.820;9.244;2022-12-07T03:26:21;4.40;99.90
7194;DHT22;3638;48.820;9.244;2022-12-07T03:28:54;4.50;99.90
7194;DHT22;3638;48.820;9.244;2022-12-07T03:31:26;4.50;99.90
7194;DHT22;3638;48.820;9.244;2022-12-07T03:33:59;4.50;99.90
7194;DHT22;3638;48.820;9.244;2022-12-07T03:36:39;4.50;99.90
7194;DHT22;3638;48.820;9.244;2022-12-07T03:39:14;4.40;99.90
7194;DHT22;3638;48.820;9.244;2022-12-07T03:41:44;4.40;99.90
7194;DHT22;3638;48.820;9.244;2022-12-07T03:44:12;4.40;99.90
7194;DHT22;3638;48.820;9.244;2022-12-07T03:46:44;4.40;99.90
7194;DHT22;3638;48.820;9.244;2022-12-07T03:49:20;4.30;99.90
7194;DHT22;3638;48.820;9.244;2022-12-07T03:51:54;4.30;99.90
7194;DHT22;3638;48.820;9.244;2022-12-07T03:54:26;4.20;99.90
7194;DHT22;3638;48.820;9.244;2022-12-07T03:56:57;4.30;99.90
7194;DHT22;3638;48.820;9.244;2022-12-07T03:59:26;4.20;99.90
7194;DHT22;3638;48.820;9.244;2022-12-07T04:01:56;4.20;99.90
7194;DHT22;3638;48.820;9.244;2022-12-07T04:04:24;4.10;99.90
7194;DHT22;3638;48.820;9.244;2022-12-07T04:06:52;4.20;99.90
7194;DHT22;3638;48.820;9.244;2022-12-07T04:09:21;4.10;99.90
7194;DHT22;3638;48.820;9.244;2022-12-07T04:11:51;4.10;99.90
7194;DHT22;3638;48.820;9.244;2022-12-07T04:14:18;4.00;99.90
7194;DHT22;3638;48.820;9.244;2022-12-07T04:16:45;4.00;99.90
7194;DHT22;3638;48.820;9.244;2022-12-07T04:19:14;4.00;99.90
7194;DHT22;3638;48.820;9.244;2022-12-07T04:21:41;3.90;99.90
7194;DHT22;3638;48.820;9.244;2022-12-07T04:24:08;3.90;99.90
7194;DHT22;3638;48.820;9.244;2022-12-07T04:26:35;3.80;99.90
7194;DHT22;3638;48.820;9.244;2022-12-07T04:29:02;3.70;99.90
7194;DHT22;3638;48.820;9.244;2022-12-07T04:31:29;3.60;99.90
7194;DHT22;3638;48.820;9.244;2022-12-07T04:33:56;3.50;99.90
7194;DHT22;3638;48.820;9.244;2022-12-07T04:36:24;3.50;99.90
7194;DHT22;3638;48.820;9.244;2022-12-07T04:38:53;3.60;99.90
7194;DHT22;3638;48.820;9.244;2022-12-07T04:41:21;3.60;99.90
7194;DHT22;3638;48.820;9.244;2022-12-07T04:43:53;3.60;99.90
7194;DHT22;3638;48.820;9.244;2022-12-07T04:46:20;3.60;99.90
7194;DHT22;3638;48.820;9.244;2022-12-07T04:48:48;3.60;99.90
7194;DHT22;3638;48.820;9.244;2022-12-07T04:51:16;3.60;99.90
7194;DHT22;3638;48.820;9.244;2022-12-07T04:53:47;3.50;99.90
7194;DHT22;3638;48.820;9.244;2022-12-07T04:56:15;3.40;99.90
7194;DHT22;3638;48.820;9.244;2022-12-07T04:58:43;3.40;99.90
7194;DHT22;3638;48.820;9.244;2022-12-07T05:01:11;3.40;99.90
7194;DHT22;3638;48.820;9.244;2022-12-07T05:03:38;3.50;99.90
7194;DHT22;3638;48.820;9.244;2022-12-07T05:06:06;3.50;99.90
7194;DHT22;3638;48.820;9.244;2022-12-07T05:08:34;3.60;99.90
7194;DHT22;3638;48.820;9.244;2022-12-07T05:11:03;3.70;99.90
7194;DHT22;3638;48.820;9.244;2022-12-07T05:13:32;3.70;99.90
7194;DHT22;3638;48.820;9.244;2022-12-07T05:15:59;3.70;99.90
7194;DHT22;3638;48.820;9.244;2022-12-07T05:18:26;3.50;99.90
7194;DHT22;3638;48.820;9.244;2022-12-07T05:20:53;3.40;99.90
7194;DHT22;3638;48.820;9.244;2022-12-07T05:23:20;3.20;99.90
7194;DHT22;3638;48.820;9.244;2022-12-07T05:25:47;3.10;99.90
7194;DHT22;3638;48.820;9.244;2022-12-07T05:28:15;3.10;99.90
7194;DHT22;3638;48.820;9.244;2022-12-07T05:30:42;3.00;99.90
7194;DHT22;3638;48.820;9.244;2022-12-07T05:33:09;3.00;99.90
7194;DHT22;3638;48.820;9.244;2022-12-07T05:35:36;3.00;99.90
7194;DHT22;3638;48.820;9.244;2022-12-07T05:38:03;2.90;99.90
7194;DHT22;3638;48.820;9.244;2022-12-07T05:40:30;2.80;99.90
7194;DHT22;3638;48.820;9.244;2022-12-07T05:45:25;2.80;99.90
7194;DHT22;3638;48.820;9.244;2022-12-07T05:50:20;3.00;99.90
7194;DHT22;3638;48.820;9.244;2022-12-07T05:52:46;3.20;99.90
7194;DHT22;3638;48.820;9.244;2022-12-07T05:55:13;3.10;99.90
7194;DHT22;3638;48.820;9.244;2022-12-07T06:00:29;2.10;99.90
7194;DHT22;3638;48.820;9.244;2022-12-07T06:02:55;3.40;99.90
7194;DHT22;3638;48.820;9.244;2022-12-07T06:07:50;3.50;99.90
7194;DHT22;3638;48.820;9.244;2022-12-07T06:10:17;3.50;99.90
7194;DHT22;3638;48.820;9.244;2022-12-07T06:12:44;3.50;99.90
7194;DHT22;3638;48.820;9.244;2022-12-07T06:15:11;3.40;99.90
7194;DHT22;3638;48.820;9.244;2022-12-07T06:17:40;3.40;99.90
7194;DHT22;3638;48.820;9.244;2022-12-07T06:20:08;3.50;99.90
7194;DHT22;3638;48.820;9.244;2022-12-07T06:22:35;3.40;99.90
7194;DHT22;3638;48.820;9.244;2022-12-07T06:25:02;3.30;99.90
7194;DHT22;3638;48.820;9.244;2022-12-07T06:27:30;3.30;99.90
7194;DHT22;3638;48.820;9.244;2022-12-07T06:29:58;3.50;99.90
7194;DHT22;3638;48.820;9.244;2022-12-07T06:32:25;3.60;99.90
7194;DHT22;3638;48.820;9.244;2022-12-07T06:34:53;3.50;99.90
7194;DHT22;3638;48.820;9.244;2022-12-07T06:37:20;3.60;99.90
7194;DHT22;3638;48.820;9.244;2022-12-07T06:39:47;3.50;99.90
7194;DHT22;3638;48.820;9.244;2022-12-07T06:42:14;3.60;99.90
7194;DHT22;3638;48.820;9.244;2022-12-07T06:44:40;3.50;99.90
7194;DHT22;3638;48.820;9.244;2022-12-07T06:47:07;3.40;99.90
7194;DHT22;3638;48.820;9.244;2022-12-07T06:49:34;3.30;99.90
7194;DHT22;3638;48.820;9.244;2022-12-07T06:52:03;3.40;99.90
7194;DHT22;3638;48.820;9.244;2022-12-07T06:54:31;3.50;99.90
7194;DHT22;3638;48.820;9.244;2022-12-07T06:56:58;3.50;99.90
7194;DHT22;3638;48.820;9.244;2022-12-07T06:59:25;3.60;99.90
7194;DHT22;3638;48.820;9.244;2022-12-07T07:01:52;3.50;99.90
7194;DHT22;3638;48.820;9.244;2022-12-07T07:04:19;3.60;99.90
7194;DHT22;3638;48.820;9.244;2022-12-07T07:06:45;3.70;99.90
7194;DHT22;3638;48.820;9.244;2022-12-07T07:09:14;3.60;99.90
7194;DHT22;3638;48.820;9.244;2022-12-07T07:11:41;3.20;99.90
7194;DHT22;3638;48.820;9.244;2022-12-07T07:14:07;3.70;99.90
7194;DHT22;3638;48.820;9.244;2022-12-07T07:16:34;3.70;99.90
7194;DHT22;3638;48.820;9.244;2022-12-07T07:19:01;3.70;99.90
7194;DHT22;3638;48.820;9.244;2022-12-07T07:21:28;3.70;99.90
7194;DHT22;3638;48.820;9.244;2022-12-07T07:23:55;3.60;99.90
7194;DHT22;3638;48.820;9.244;2022-12-07T07:26:23;3.70;99.90
7194;DHT22;3638;48.820;9.244;2022-12-07T07:28:51;3.60;99.90
7194;DHT22;3638;48.820;9.244;2022-12-07T07:31:17;3.60;99.90
7194;DHT22;3638;48.820;9.244;2022-12-07T07:33:45;3.70;99.90
7194;DHT22;3638;48.820;9.244;2022-12-07T07:36:12;3.90;99.90
7194;DHT22;3638;48.820;9.244;2022-12-07T07:38:39;3.90;99.90
7194;DHT22;3638;48.820;9.244;2022-12-07T07:41:06;3.90;99.90
7194;DHT22;3638;48.820;9.244;2022-12-07T07:43:34;3.90;99.90
7194;DHT22;3638;48.820;9.244;2022-12-07T07:46:01;4.00;99.90
7194;DHT22;3638;48.820;9.244;2022-12-07T07:48:28;4.10;99.90
7194;DHT22;3638;48.820;9.244;2022-12-07T07:53:22;4.20;99.90
7194;DHT22;3638;48.820;9.244;2022-12-07T07:55:52;4.10;99.90
7194;DHT22;3638;48.820;9.244;2022-12-07T07:58:20;4.10;99.90
7194;DHT22;3638;48.820;9.244;2022-12-07T08:00:48;4.20;99.90
7194;DHT22;3638;48.820;9.244;2022-12-07T08:03:15;3.50;99.90
7194;DHT22;3638;48.820;9.244;2022-12-07T08:05:42;4.20;99.90
7194;DHT22;3638;48.820;9.244;2022-12-07T08:08:09;4.30;99.90
7194;DHT22;3638;48.820;9.244;2022-12-07T08:10:36;4.30;99.90
7194;DHT22;3638;48.820;9.244;2022-12-07T08:13:03;4.30;99.90
7194;DHT22;3638;48.820;9.244;2022-12-07T08:15:41;4.40;99.90
7194;DHT22;3638;48.820;9.244;2022-12-07T08:18:11;4.50;99.90
7194;DHT22;3638;48.820;9.244;2022-12-07T08:20:40;4.60;99.90
7194;DHT22;3638;48.820;9.244;2022-12-07T08:23:07;4.60;99.90
7194;DHT22;3638;48.820;9.244;2022-12-07T08:25:35;4.60;99.90
7194;DHT22;3638;48.820;9.244;2022-12-07T08:28:03;4.70;99.90
7194;DHT22;3638;48.820;9.244;2022-12-07T08:30:30;4.70;99.90
7194;DHT22;3638;48.820;9.244;2022-12-07T08:32:57;4.70;99.90
7194;DHT22;3638;48.820;9.244;2022-12-07T08:35:26;4.80;99.90
7194;DHT22;3638;48.820;9.244;2022-12-07T08:37:53;4.70;99.90
7194;DHT22;3638;48.820;9.244;2022-12-07T08:40:20;4.70;99.90
7194;DHT22;3638;48.820;9.244;2022-12-07T08:42:49;4.80;99.90
7194;DHT22;3638;48.820;9.244;2022-12-07T08:45:17;4.90;99.90
7194;DHT22;3638;48.820;9.244;2022-12-07T08:47:49;4.90;99.90
7194;DHT22;3638;48.820;9.244;2022-12-07T08:50:18;5.40;99.90
7194;DHT22;3638;48.820;9.244;2022-12-07T08:52:48;5.50;99.90
7194;DHT22;3638;48.820;9.244;2022-12-07T08:55:17;5.50;99.90
7194;DHT22;3638;48.820;9.244;2022-12-07T08:57:45;5.40;99.90
7194;DHT22;3638;48.820;9.244;2022-12-07T09:00:13;5.30;99.90
7194;DHT22;3638;48.820;9.244;2022-12-07T09:02:43;5.30;99.90
7194;DHT22;3638;48.820;9.244;2022-12-07T09:05:10;5.50;99.90
7194;DHT22;3638;48.820;9.244;2022-12-07T09:07:37;5.40;99.90
7194;DHT22;3638;48.820;9.244;2022-12-07T09:10:07;5.50;99.90
7194;DHT22;3638;48.820;9.244;2022-12-07T09:12:34;5.50;99.90
7194;DHT22;3638;48.820;9.244;2022-12-07T09:15:01;5.60;99.90
7194;DHT22;3638;48.820;9.244;2022-12-07T09:17:31;5.60;99.90
7194;DHT22;3638;48.820;9.244;2022-12-07T09:19:59;5.60;99.90
7194;DHT22;3638;48.820;9.244;2022-12-07T09:22:28;5.60;99.90
7194;DHT22;3638;48.820;9.244;2022-12-07T09:24:55;5.80;99.90
7194;DHT22;3638;48.820;9.244;2022-12-07T09:27:24;5.70;99.90
7194;DHT22;3638;48.820;9.244;2022-12-07T09:29:51;5.70;99.90
7194;DHT22;3638;48.820;9.244;2022-12-07T09:32:18;5.70;99.90
7194;DHT22;3638;48.820;9.244;2022-12-07T09:34:45;5.90;99.90
7194;DHT22;3638;48.820;9.244;2022-12-07T09:37:12;5.90;99.90
7194;DHT22;3638;48.820;9.244;2022-12-07T09:39:40;6.10;99.90
7194;DHT22;3638;48.820;9.244;2022-12-07T09:42:07;6.30;99.90
7194;DHT22;3638;48.820;9.244;2022-12-07T09:44:40;6.30;99.90
7194;DHT22;3638;48.820;9.244;2022-12-07T09:47:09;6.20;99.90
7194;DHT22;3638;48.820;9.244;2022-12-07T09:49:36;6.40;99.90
7194;DHT22;3638;48.820;9.244;2022-12-07T09:52:17;6.30;99.90
7194;DHT22;3638;48.820;9.244;2022-12-07T09:54:48;6.40;99.90
7194;DHT22;3638;48.820;9.244;2022-12-07T09:57:17;6.50;99.90
7194;DHT22;3638;48.820;9.244;2022-12-07T09:59:46;6.50;99.90
7194;DHT22;3638;48.820;9.244;2022-12-07T10:02:33;6.60;99.90
7194;DHT22;3638;48.820;9.244;2022-12-07T10:05:04;6.60;99.90
7194;DHT22;3638;48.820;9.244;2022-12-07T10:07:33;6.60;99.90
7194;DHT22;3638;48.820;9.244;2022-12-07T10:10:02;6.70;99.90
7194;DHT22;3638;48.820;9.244;2022-12-07T10:12:30;6.80;99.90
7194;DHT22;3638;48.820;9.244;2022-12-07T10:15:01;6.80;99.90
7194;DHT22;3638;48.820;9.244;2022-12-07T10:17:35;6.70;99.90
7194;DHT22;3638;48.820;9.244;2022-12-07T10:20:30;6.80;99.90
7194;DHT22;3638;48.820;9.244;2022-12-07T10:23:00;6.90;99.90
7194;DHT22;3638;48.820;9.244;2022-12-07T10:25:31;6.70;99.90
7194;DHT22;3638;48.820;9.244;2022-12-07T10:28:17;6.50;99.90
7194;DHT22;3638;48.820;9.244;2022-12-07T10:30:55;6.50;99.90
7194;DHT22;3638;48.820;9.244;2022-12-07T10:33:29;6.60;99.90
7194;DHT22;3638;48.820;9.244;2022-12-07T10:35:58;6.30;99.90
7194;DHT22;3638;48.820;9.244;2022-12-07T10:38:26;6.30;99.90
7194;DHT22;3638;48.820;9.244;2022-12-07T10:41:03;6.30;99.90
7194;DHT22;3638;48.820;9.244;2022-12-07T10:43:31;6.20;99.90
7194;DHT22;3638;48.820;9.244;2022-12-07T10:52:37;6.20;99.90
7194;DHT22;3638;48.820;9.244;2022-12-07T10:55:19;6.40;99.90
7194;DHT22;3638;48.820;9.244;2022-12-07T10:58:06;6.50;99.90
7194;DHT22;3638;48.820;9.244;2022-12-07T11:00:51;6.50;99.90
7194;DHT22;3638;48.820;9.244;2022-12-07T11:03:30;6.40;99.90
7194;DHT22;3638;48.820;9.244;2022-12-07T11:06:14;7.10;99.90
7194;DHT22;3638;48.820;9.244;2022-12-07T11:09:15;6.50;99.90
7194;DHT22;3638;48.820;9.244;2022-12-07T11:12:03;6.50;99.90
7194;DHT22;3638;48.820;9.244;2022-12-07T11:14:39;6.40;99.90
7194;DHT22;3638;48.820;9.244;2022-12-07T11:17:14;6.40;99.90
7194;DHT22;3638;48.820;9.244;2022-12-07T11:20:00;6.50;99.90
7194;DHT22;3638;48.820;9.244;2022-12-07T11:22:39;6.50;99.90
7194;DHT22;3638;48.820;9.244;2022-12-07T11:25:18;6.30;99.90
7194;DHT22;3638;48.820;9.244;2022-12-07T11:28:02;6.40;99.90
7194;DHT22;3638;48.820;9.244;2022-12-07T11:30:40;6.30;99.90
7194;DHT22;3638;48.820;9.244;2022-12-07T11:33:17;6.20;99.90
7194;DHT22;3638;48.820;9.244;2022-12-07T11:35:57;6.30;99.90
7194;DHT22;3638;48.820;9.244;2022-12-07T11:38:37;6.10;99.90
7194;DHT22;3638;48.820;9.244;2022-12-07T11:41:09;6.40;99.90
7194;DHT22;3638;48.820;9.244;2022-12-07T11:43:50;6.30;99.90
7194;DHT22;3638;48.820;9.244;2022-12-07T11:46:23;6.20;99.90
7194;DHT22;3638;48.820;9.244;2022-12-07T11:48:58;5.80;99.90
7194;DHT22;3638;48.820;9.244;2022-12-07T11:51:34;5.70;99.90
7194;DHT22;3638;48.820;9.244;2022-12-07T11:54:05;5.50;99.90
7194;DHT22;3638;48.820;9.244;2022-12-07T11:59:11;5.50;99.90
7194;DHT22;3638;48.820;9.244;2022-12-07T12:01:49;5.50;99.90
7194;DHT22;3638;48.820;9.244;2022-12-07T12:04:27;5.40;99.90
7194;DHT22;3638;48.820;9.244;2022-12-07T12:06:59;5.40;99.90
7194;DHT22;3638;48.820;9.244;2022-12-07T12:09:30;5.40;99.90
7194;DHT22;3638;48.820;9.244;2022-12-07T12:12:18;5.40;99.90
7194;DHT22;3638;48.820;9.244;2022-12-07T12:15:01;5.40;99.90
7194;DHT22;3638;48.820;9.244;2022-12-07T12:17:50;5.50;99.90
7194;DHT22;3638;48.820;9.244;2022-12-07T12:20:42;5.40;99.90
7194;DHT22;3638;48.820;9.244;2022-12-07T12:23:16;5.50;99.90
7194;DHT22;3638;48.820;9.244;2022-12-07T12:25:47;5.60;99.90
7194;DHT22;3638;48.820;9.244;2022-12-07T12:28:23;5.60;99.90
7194;DHT22;3638;48.820;9.244;2022-12-07T12:31:06;5.70;99.90
7194;DHT22;3638;48.820;9.244;2022-12-07T12:33:35;5.80;99.90
7194;DHT22;3638;48.820;9.244;2022-12-07T12:36:18;5.90;99.90
7194;DHT22;3638;48.820;9.244;2022-12-07T12:38:51;6.10;99.90
7194;DHT22;3638;48.820;9.244;2022-12-07T12:41:53;6.00;99.90
7194;DHT22;3638;48.820;9.244;2022-12-07T12:44:43;5.90;99.90
7194;DHT22;3638;48.820;9.244;2022-12-07T12:47:42;6.10;99.90
7194;DHT22;3638;48.820;9.244;2022-12-07T12:50:15;6.20;99.90
7194;DHT22;3638;48.820;9.244;2022-12-07T12:53:03;6.30;99.90
7194;DHT22;3638;48.820;9.244;2022-12-07T12:55:54;8.10;99.90
7194;DHT22;3638;48.820;9.244;2022-12-07T12:58:37;6.40;99.90
7194;DHT22;3638;48.820;9.244;2022-12-07T13:01:38;6.30;99.90
7194;DHT22;3638;48.820;9.244;2022-12-07T13:04:38;6.10;99.90
7194;DHT22;3638;48.820;9.244;2022-12-07T13:07:12;6.10;99.90
7194;DHT22;3638;48.820;9.244;2022-12-07T13:09:44;6.20;99.90
7194;DHT22;3638;48.820;9.244;2022-12-07T13:12:15;6.10;99.90
7194;DHT22;3638;48.820;9.244;2022-12-07T13:14:54;6.00;99.90
7194;DHT22;3638;48.820;9.244;2022-12-07T13:17:55;6.00;99.90
7194;DHT22;3638;48.820;9.244;2022-12-07T13:20:47;6.10;99.90
7194;DHT22;3638;48.820;9.244;2022-12-07T13:23:20;6.10;99.90
7194;DHT22;3638;48.820;9.244;2022-12-07T13:26:14;6.20;99.90
7194;DHT22;3638;48.820;9.244;2022-12-07T13:28:45;6.20;99.90
7194;DHT22;3638;48.820;9.244;2022-12-07T13:31:19;6.10;99.90
7194;DHT22;3638;48.820;9.244;2022-12-07T13:33:49;6.00;99.90
7194;DHT22;3638;48.820;9.244;2022-12-07T13:36:20;6.00;99.90
7194;DHT22;3638;48.820;9.244;2022-12-07T13:38:51;6.00;99.90
7194;DHT22;3638;48.820;9.244;2022-12-07T13:41:21;6.10;99.90
7194;DHT22;3638;48.820;9.244;2022-12-07T13:43:53;5.90;99.90
7194;DHT22;3638;48.820;9.244;2022-12-07T13:46:35;6.00;99.90
7194;DHT22;3638;48.820;9.244;2022-12-07T13:49:21;6.00;99.90
7194;DHT22;3638;48.820;9.244;2022-12-07T13:51:50;6.30;99.90
7194;DHT22;3638;48.820;9.244;2022-12-07T13:54:18;6.00;99.90
7194;DHT22;3638;48.820;9.244;2022-12-07T13:56:48;5.90;99.90
7194;DHT22;3638;48.820;9.244;2022-12-07T13:59:19;6.00;99.90
7194;DHT22;3638;48.820;9.244;2022-12-07T14:01:49;6.10;99.90
7194;DHT22;3638;48.820;9.244;2022-12-07T14:04:31;6.00;99.90
7194;DHT22;3638;48.820;9.244;2022-12-07T14:07:00;6.00;99.90
7194;DHT22;3638;48.820;9.244;2022-12-07T14:09:28;6.00;99.90
7194;DHT22;3638;48.820;9.244;2022-12-07T14:11:57;6.00;99.90
7194;DHT22;3638;48.820;9.244;2022-12-07T14:14:29;5.90;99.90
7194;DHT22;3638;48.820;9.244;2022-12-07T14:17:02;6.00;99.90
7194;DHT22;3638;48.820;9.244;2022-12-07T14:19:55;6.00;99.90
7194;DHT22;3638;48.820;9.244;2022-12-07T14:22:28;6.20;99.90
7194;DHT22;3638;48.820;9.244;2022-12-07T14:25:16;6.10;99.90
7194;DHT22;3638;48.820;9.244;2022-12-07T14:27:51;6.10;99.90
7194;DHT22;3638;48.820;9.244;2022-12-07T14:30:24;6.10;99.90
7194;DHT22;3638;48.820;9.244;2022-12-07T14:32:54;6.10;99.90
7194;DHT22;3638;48.820;9.244;2022-12-07T14:35:24;6.10;99.90
7194;DHT22;3638;48.820;9.244;2022-12-07T14:37:51;5.90;99.90
7194;DHT22;3638;48.820;9.244;2022-12-07T14:40:20;5.80;99.90
7194;DHT22;3638;48.820;9.244;2022-12-07T14:42:51;6.00;99.90
7194;DHT22;3638;48.820;9.244;2022-12-07T14:45:22;6.10;99.90
7194;DHT22;3638;48.820;9.244;2022-12-07T14:47:49;6.20;99.90
7194;DHT22;3638;48.820;9.244;2022-12-07T14:50:17;6.10;99.90
7194;DHT22;3638;48.820;9.244;2022-12-07T14:52:48;5.90;99.90
7194;DHT22;3638;48.820;9.244;2022-12-07T14:55:20;6.10;99.90
7194;DHT22;3638;48.820;9.244;2022-12-07T14:57:50;5.90;99.90
7194;DHT22;3638;48.820;9.244;2022-12-07T15:00:18;5.90;99.90
7194;DHT22;3638;48.820;9.244;2022-12-07T15:02:48;5.80;99.90
7194;DHT22;3638;48.820;9.244;2022-12-07T15:05:16;5.80;99.90
7194;DHT22;3638;48.820;9.244;2022-12-07T15:07:43;5.80;99.90
7194;DHT22;3638;48.820;9.244;2022-12-07T15:10:14;5.80;99.90
7194;DHT22;3638;48.820;9.244;2022-12-07T15:12:44;5.80;99.90
7194;DHT22;3638;48.820;9.244;2022-12-07T15:15:11;5.70;99.90
7194;DHT22;3638;48.820;9.244;2022-12-07T15:17:39;5.70;99.90
7194;DHT22;3638;48.820;9.244;2022-12-07T15:20:09;5.60;99.90
7194;DHT22;3638;48.820;9.244;2022-12-07T15:22:38;5.60;99.90
7194;DHT22;3638;48.820;9.244;2022-12-07T15:25:06;5.50;99.90
7194;DHT22;3638;48.820;9.244;2022-12-07T15:27:33;5.50;99.90
7194;DHT22;3638;48.820;9.244;2022-12-07T15:30:00;5.40;99.90
7194;DHT22;3638;48.820;9.244;2022-12-07T15:32:28;5.50;99.90
7194;DHT22;3638;48.820;9.244;2022-12-07T15:34:55;5.30;99.90
7194;DHT22;3638;48.820;9.244;2022-12-07T15:37:23;5.30;99.90
7194;DHT22;3638;48.820;9.244;2022-12-07T15:39:50;5.20;99.90
7194;DHT22;3638;48.820;9.244;2022-12-07T15:42:17;5.30;99.90
7194;DHT22;3638;48.820;9.244;2022-12-07T15:44:43;5.30;99.90
7194;DHT22;3638;48.820;9.244;2022-12-07T15:47:28;5.20;99.90
7194;DHT22;3638;48.820;9.244;2022-12-07T15:49:55;6.40;99.90
7194;DHT22;3638;48.820;9.244;2022-12-07T15:52:23;5.30;99.90
7194;DHT22;3638;48.820;9.244;2022-12-07T15:54:50;5.40;99.90
7194;DHT22;3638;48.820;9.244;2022-12-07T15:57:17;5.30;99.90
7194;DHT22;3638;48.820;9.244;2022-12-07T15:59:44;5.20;99.90
7194;DHT22;3638;48.820;9.244;2022-12-07T16:02:11;5.10;99.90
7194;DHT22;3638;48.820;9.244;2022-12-07T16:04:38;5.20;99.90
7194;DHT22;3638;48.820;9.244;2022-12-07T16:07:05;5.20;99.90
7194;DHT22;3638;48.820;9.244;2022-12-07T16:09:33;5.20;99.90
7194;DHT22;3638;48.820;9.244;2022-12-07T16:12:00;5.20;99.90
7194;DHT22;3638;48.820;9.244;2022-12-07T16:14:27;4.90;99.90
7194;DHT22;3638;48.820;9.244;2022-12-07T16:16:54;5.00;99.90
7194;DHT22;3638;48.820;9.244;2022-12-07T16:19:21;4.90;99.90
7194;DHT22;3638;48.820;9.244;2022-12-07T16:21:48;5.00;99.90
7194;DHT22;3638;48.820;9.244;2022-12-07T16:24:15;3.30;99.90
7194;DHT22;3638;48.820;9.244;2022-12-07T16:26:44;4.90;99.90
7194;DHT22;3638;48.820;9.244;2022-12-07T16:29:12;4.90;99.90
7194;DHT22;3638;48.820;9.244;2022-12-07T16:31:40;4.80;99.90
7194;DHT22;3638;48.820;9.244;2022-12-07T16:34:09;4.80;99.90
7194;DHT22;3638;48.820;9.244;2022-12-07T16:36:36;4.80;99.90
7194;DHT22;3638;48.820;9.244;2022-12-07T16:39:04;4.70;99.90
7194;DHT22;3638;48.820;9.244;2022-12-07T16:41:31;4.60;99.90
7194;DHT22;3638;48.820;9.244;2022-12-07T16:44:02;4.50;99.90
7194;DHT22;3638;48.820;9.244;2022-12-07T16:46:31;4.50;99.90
7194;DHT22;3638;48.820;9.244;2022-12-07T16:48:59;4.30;99.90
7194;DHT22;3638;48.820;9.244;2022-12-07T16:51:25;4.30;99.90
7194;DHT22;3638;48.820;9.244;2022-12-07T16:53:53;4.30;99.90
7194;DHT22;3638;48.820;9.244;2022-12-07T16:56:20;4.30;99.90
7194;DHT22;3638;48.820;9.244;2022-12-07T16:58:47;4.20;99.90
7194;DHT22;3638;48.820;9.244;2022-12-07T17:01:18;4.20;99.90
7194;DHT22;3638;48.820;9.244;2022-12-07T17:03:47;4.20;99.90
7194;DHT22;3638;48.820;9.244;2022-12-07T17:06:16;4.00;99.90